Espigao d'Oeste, Brazil
Current Conditions -  °F | °C
As of 4:00 PM on Monday 20 Oct 2014 (Local Time) from SBVH Reporting Station
Few Clouds Few Clouds  
Wind Chill: 82°   Ceiling: Unl
Heat Index: 85°   Visibility: 6mi
Dew Point: 68°   Wind: 8mph
Humidity: 62%   Direction: 60°ENE
Pressure: 29.94"   Gusts: NA
Location:  11.52°S, 61.01°W
Report Text: SBVH 202000Z 06007KT 9999 FEW025 FEW030TCU 28/20 Q1014
Loading
Personal Weather Stations






























Interactive Weather Map
Tropical Storm Tracking
New forecast layout! Learn more

10-Day Weather Forecast

Advertisements
Track Severe Weather on mobile